Time;durP1;ratioP1;P1;durP2;ratioP2;P2;SDS_P1;SDS_P2;PMS_P1;PMS_P2;Temp;Humidity;BMP_temperature;BMP_pressure;BME280_temperature;BME280_humidity;BME280_pressure;Samples;Min_cycle;Max_cycle;Signal;HPM_P1;HPM_P2
2021/06/08 00:01:49;;;;;;;10.80;8.83;;;;;;;15.27;79.79;101993.34;4936772;29;20088;-74
2021/06/08 00:04:15;;;;;;;10.53;8.50;;;;;;;15.25;79.86;101996.19;4920114;29;20096;-74
2021/06/08 00:06:40;;;;;;;12.75;9.18;;;;;;;15.23;79.42;101995.50;4936505;29;20035;-74
2021/06/08 00:09:06;;;;;;;9.87;8.70;;;;;;;15.19;79.36;101994.13;4936853;29;20425;-74
2021/06/08 00:11:31;;;;;;;11.83;9.73;;;;;;;15.17;79.38;101996.13;4936775;29;20505;-74
2021/06/08 00:13:57;;;;;;;11.63;9.20;;;;;;;15.15;79.39;102003.53;4919805;29;20054;-74
2021/06/08 00:16:23;;;;;;;;;;;;;;;15.15;79.49;101987.41;4936840;29;20102;-74
2021/06/08 00:18:48;;;;;;;;;;;;;;;15.05;79.58;101995.56;4920192;29;19918;-74
2021/06/08 00:21:13;;;;;;;11.87;9.97;;;;;;;15.15;79.11;101982.88;4919639;29;20245;-74
2021/06/08 00:23:39;;;;;;;15.50;11.70;;;;;;;15.09;79.25;101983.50;4936628;29;20039;-74
2021/06/08 00:26:04;;;;;;;12.43;10.53;;;;;;;15.07;79.33;101990.88;4936072;29;20043;-74
2021/06/08 00:28:29;;;;;;;14.30;10.80;;;;;;;15.08;79.41;101989.06;4936313;29;20094;-74
2021/06/08 00:30:55;;;;;;;16.47;11.90;;;;;;;15.06;79.66;101983.00;4936320;29;20054;-74
2021/06/08 00:33:20;;;;;;;12.00;10.73;;;;;;;15.04;79.97;101987.69;4919458;29;20055;-74
2021/06/08 00:35:46;;;;;;;15.52;11.65;;;;;;;15.02;80.31;101981.63;4919450;29;20045;-74
2021/06/08 00:38:11;;;;;;;13.60;10.87;;;;;;;14.90;80.97;101979.22;4936060;29;20084;-74
2021/06/08 00:40:41;;;;;;;14.93;10.60;;;;;;;14.93;80.66;101975.38;4936262;29;20381;-74
2021/06/08 00:43:07;;;;;;;14.30;10.35;;;;;;;14.96;80.39;101983.97;4935867;29;20098;-74
2021/06/08 00:45:32;;;;;;;14.13;10.53;;;;;;;14.97;80.69;101976.72;4936306;29;20457;-74
2021/06/08 00:47:57;;;;;;;12.97;10.07;;;;;;;14.97;80.43;101974.03;4919063;29;20477;-74
2021/06/08 00:50:23;;;;;;;15.73;11.10;;;;;;;14.99;80.47;101977.41;4919241;29;20458;-74
2021/06/08 00:52:51;;;;;;;15.20;9.83;;;;;;;14.97;80.58;101969.50;4934729;29;20046;-74
2021/06/08 00:55:17;;;;;;;12.77;9.52;;;;;;;14.96;80.59;101966.97;4919027;29;20079;-74
2021/06/08 00:57:42;;;;;;;12.63;9.18;;;;;;;14.91;80.31;101972.00;4902990;29;20070;-74
2021/06/08 01:00:08;;;;;;;14.63;10.13;;;;;;;14.89;80.87;101969.47;4935849;29;20478;-74
2021/06/08 01:02:34;;;;;;;14.52;9.75;;;;;;;14.89;80.99;101976.69;4935715;29;20442;-74
2021/06/08 01:05:05;;;;;;;13.98;10.50;;;;;;;14.89;80.98;101976.69;4935666;29;20090;-74
2021/06/08 01:07:32;;;;;;;15.18;11.25;;;;;;;14.86;81.23;101974.31;4935358;29;20035;-74
2021/06/08 01:09:58;;;;;;;13.55;10.45;;;;;;;14.87;81.47;101978.72;4935824;29;20050;-74
2021/06/08 01:12:25;;;;;;;12.32;9.77;;;;;;;14.84;81.92;101973.63;4935702;29;20043;-74
2021/06/08 01:14:51;;;;;;;11.52;10.00;;;;;;;14.85;82.00;101984.25;4935594;29;20875;-74
2021/06/08 01:17:16;;;;;;;12.20;9.27;;;;;;;14.82;81.79;101984.56;4918373;29;20054;-74
2021/06/08 01:19:41;;;;;;;8.23;6.90;;;;;;;14.80;82.32;101977.63;4918566;29;20326;-74
2021/06/08 01:22:07;;;;;;;13.87;8.83;;;;;;;14.75;82.31;101984.38;4902804;29;20079;-74
2021/06/08 01:24:32;;;;;;;14.07;9.20;;;;;;;14.74;81.92;101984.50;4935163;29;20067;-74
2021/06/08 01:26:58;;;;;;;9.87;8.30;;;;;;;14.75;81.55;101991.59;4934910;29;20435;-73
2021/06/08 01:29:24;;;;;;;10.80;8.10;;;;;;;14.64;82.44;101987.31;4918368;29;20134;-74
2021/06/08 01:31:53;;;;;;;12.27;8.30;;;;;;;14.69;81.83;101987.69;4920006;29;20043;-74
2021/06/08 01:34:18;;;;;;;11.27;8.38;;;;;;;14.66;82.05;101988.00;4935872;29;20114;-74
2021/06/08 01:36:44;;;;;;;9.95;7.97;;;;;;;14.58;81.77;101990.63;4935066;29;20043;-73
2021/06/08 01:39:09;;;;;;;10.90;7.87;;;;;;;14.62;81.72;101989.31;4918618;29;20462;-73
2021/06/08 01:41:37;;;;;;;9.97;7.37;;;;;;;14.58;81.61;101982.56;4918146;29;20030;-74
2021/06/08 01:44:03;;;;;;;9.73;7.05;;;;;;;14.61;81.29;101979.59;4917917;29;20036;-74
2021/06/08 01:46:28;;;;;;;12.57;7.13;;;;;;;14.57;81.20;101976.34;4934630;29;20071;-74
2021/06/08 01:48:54;;;;;;;10.43;7.67;;;;;;;14.54;81.12;101981.22;4934740;29;20092;-74
2021/06/08 01:51:43;;;;;;;8.00;6.60;;;;;;;14.52;81.21;101983.19;4934850;29;20032;-74
2021/06/08 01:54:32;;;;;;;7.18;6.45;;;;;;;14.42;81.52;101982.44;4934472;29;20039;-73
2021/06/08 01:57:04;;;;;;;10.55;7.35;;;;;;;14.35;81.82;101980.41;4934226;29;20042;-74
2021/06/08 01:59:44;;;;;;;12.50;6.53;;;;;;;14.33;81.89;101977.03;4934239;29;20071;-74
2021/06/08 02:02:23;;;;;;;11.75;8.38;;;;;;;14.40;81.58;101981.75;4934233;29;20083;-74
2021/06/08 02:05:04;;;;;;;7.32;6.22;;;;;;;14.37;82.06;101982.91;4917317;29;20103;-74
2021/06/08 02:07:42;;;;;;;13.35;7.03;;;;;;;14.32;81.51;101983.38;4934182;29;20032;-74
2021/06/08 02:10:19;;;;;;;9.10;6.55;;;;;;;14.30;81.62;101982.69;4934407;29;20505;-74
2021/06/08 02:12:51;;;;;;;13.23;6.88;;;;;;;14.21;81.81;101991.72;4917626;29;20035;-74
2021/06/08 02:15:17;;;;;;;13.05;7.53;;;;;;;14.13;82.50;101986.25;4934081;29;20054;-74
2021/06/08 02:17:45;;;;;;;11.93;7.78;;;;;;;14.12;82.45;101992.66;4917205;29;20044;-74
2021/06/08 02:20:27;;;;;;;8.50;6.70;;;;;;;14.10;82.74;101997.31;4917333;29;20062;-74
2021/06/08 02:23:00;;;;;;;9.95;7.47;;;;;;;14.18;82.59;102000.06;4917442;29;20159;-74
2021/06/08 02:25:28;;;;;;;10.77;6.93;;;;;;;14.26;81.83;102002.00;4917393;29;20047;-74
2021/06/08 02:27:57;;;;;;;11.45;6.93;;;;;;;14.21;82.31;102010.50;4901499;29;20036;-74
2021/06/08 02:30:23;;;;;;;9.05;7.22;;;;;;;14.17;82.89;102008.28;4917319;29;20047;-74
2021/06/08 02:32:50;;;;;;;9.93;7.13;;;;;;;14.14;82.94;102004.91;4934255;29;20066;-74
2021/06/08 02:35:18;;;;;;;12.55;8.15;;;;;;;14.16;82.77;102002.06;4933866;29;20544;-74
2021/06/08 02:37:45;;;;;;;10.35;7.53;;;;;;;14.14;83.19;102010.28;4917000;29;20130;-74
2021/06/08 02:40:12;;;;;;;9.88;7.97;;;;;;;14.15;83.63;102011.13;4933960;29;20126;-74
2021/06/08 02:42:40;;;;;;;14.82;8.13;;;;;;;14.13;83.38;102013.13;4916801;29;20039;-74
2021/06/08 02:45:06;;;;;;;9.48;8.23;;;;;;;14.07;84.07;102011.03;4933701;29;20780;-74
2021/06/08 02:47:32;;;;;;;9.50;7.00;;;;;;;14.08;84.21;102005.53;4933765;29;20043;-74
2021/06/08 02:49:59;;;;;;;14.02;8.52;;;;;;;14.04;83.90;102003.28;4901109;29;20047;-73
2021/06/08 02:52:25;;;;;;;11.85;7.25;;;;;;;14.06;83.82;102004.00;4901430;29;20125;-74
2021/06/08 02:54:52;;;;;;;13.50;8.70;;;;;;;14.08;83.67;102012.75;4917037;29;20079;-74
2021/06/08 02:57:19;;;;;;;;;;;;;;;14.05;84.52;102003.16;4917373;29;20102;-74
2021/06/08 02:59:46;;;;;;;10.73;7.30;;;;;;;14.03;84.37;102010.53;4916814;29;19918;-74
2021/06/08 03:02:15;;;;;;;15.98;8.45;;;;;;;13.98;84.43;102004.78;4901274;29;20032;-74
2021/06/08 03:04:46;;;;;;;11.75;7.75;;;;;;;13.98;84.48;102017.31;4901097;29;20036;-73
2021/06/08 03:07:13;;;;;;;13.88;8.73;;;;;;;13.91;84.51;102007.22;4933503;29;20035;-74
2021/06/08 03:09:48;;;;;;;13.27;8.15;;;;;;;13.91;84.99;102007.22;4933760;29;20102;-74
2021/06/08 03:12:18;;;;;;;10.23;7.63;;;;;;;13.87;85.12;102005.84;4916905;29;20043;-74
2021/06/08 03:14:47;;;;;;;12.60;8.55;;;;;;;13.83;85.86;102000.94;4917060;29;20074;-74
2021/06/08 03:17:14;;;;;;;15.70;8.95;;;;;;;13.89;85.30;101995.78;4937064;29;20032;-74
2021/06/08 03:19:43;;;;;;;16.98;9.55;;;;;;;13.91;85.58;102004.53;4920697;29;20099;-74
2021/06/08 03:22:12;;;;;;;10.27;7.85;;;;;;;14.01;85.57;102003.63;4920090;29;20098;-73
2021/06/08 03:24:41;;;;;;;12.90;9.32;;;;;;;14.03;85.28;102005.16;4920772;29;20134;-73
2021/06/08 03:27:09;;;;;;;13.02;8.40;;;;;;;14.07;85.38;102013.72;4920455;29;20106;-73
2021/06/08 03:29:35;;;;;;;15.13;9.13;;;;;;;14.14;85.27;102007.59;4904822;29;20091;-73
2021/06/08 03:32:01;;;;;;;;;;;;;;;14.16;85.11;102007.41;4937728;29;20370;-73
2021/06/08 03:34:27;;;;;;;12.05;8.98;;;;;;;14.15;84.92;102011.97;4920748;29;19919;-73
2021/06/08 03:36:54;;;;;;;12.85;9.50;;;;;;;14.18;85.02;102015.34;4937037;29;20063;-73
2021/06/08 03:39:22;;;;;;;12.93;9.32;;;;;;;14.17;85.02;102013.66;4920554;29;20047;-73
2021/06/08 03:41:48;;;;;;;11.52;9.00;;;;;;;14.22;85.27;102019.41;4920508;29;20167;-73
2021/06/08 03:44:15;;;;;;;15.18;9.45;;;;;;;14.19;85.27;102017.00;4937048;29;20059;-73
2021/06/08 03:46:43;;;;;;;13.88;9.48;;;;;;;14.21;85.15;102015.88;4936847;29;20039;-74
2021/06/08 03:49:08;;;;;;;13.50;9.43;;;;;;;14.13;85.25;102015.81;4920384;29;20122;-73
2021/06/08 03:51:35;;;;;;;13.27;9.17;;;;;;;14.16;85.58;102012.78;4936903;29;20107;-74
2021/06/08 03:54:01;;;;;;;12.45;9.63;;;;;;;14.19;85.37;102017.00;4937039;29;20047;-74
2021/06/08 03:56:28;;;;;;;16.67;10.07;;;;;;;14.15;85.66;102013.81;4936438;29;20086;-73
2021/06/08 03:58:55;;;;;;;15.68;9.82;;;;;;;14.16;85.29;102012.78;4920058;29;20113;-73
2021/06/08 04:01:22;;;;;;;15.18;10.35;;;;;;;14.16;85.57;102018.16;4936767;29;20040;-73
2021/06/08 04:03:51;;;;;;;15.65;10.32;;;;;;;14.18;85.19;102021.53;4936823;29;20426;-73
2021/06/08 04:06:21;;;;;;;12.90;9.20;;;;;;;14.19;85.08;102023.25;4936422;29;20047;-73
2021/06/08 04:08:47;;;;;;;13.02;9.68;;;;;;;14.30;84.73;102027.50;4920179;29;20048;-74
2021/06/08 04:11:16;;;;;;;15.57;10.85;;;;;;;14.23;85.07;102021.91;4904204;29;20035;-73
2021/06/08 04:13:42;;;;;;;14.98;10.85;;;;;;;14.28;85.00;102022.31;4936773;29;20032;-73
2021/06/08 04:16:08;;;;;;;12.23;9.50;;;;;;;14.35;84.71;102023.38;4936212;29;20127;-73
2021/06/08 04:18:35;;;;;;;20.38;11.25;;;;;;;14.36;84.50;102024.22;4919662;29;20461;-73
2021/06/08 04:21:01;;;;;;;16.70;9.93;;;;;;;14.40;84.91;102022.03;4936350;29;20039;-73
2021/06/08 04:23:27;;;;;;;12.52;10.07;;;;;;;14.41;84.32;102021.91;4936486;29;20432;-73
2021/06/08 04:25:53;;;;;;;18.40;11.30;;;;;;;14.56;83.96;102016.81;4918950;29;20047;-74
2021/06/08 04:28:20;;;;;;;15.50;10.48;;;;;;;14.66;83.87;102019.44;4936276;29;20035;-74
2021/06/08 04:30:47;;;;;;;14.20;9.80;;;;;;;14.84;82.92;102024.72;4936257;29;20044;-73
2021/06/08 04:33:13;;;;;;;16.23;10.63;;;;;;;14.95;82.35;102019.06;4936080;29;20032;-74
2021/06/08 04:35:39;;;;;;;12.95;9.00;;;;;;;15.06;82.13;102023.34;4919920;29;20469;-73
2021/06/08 04:38:06;;;;;;;10.88;9.48;;;;;;;15.03;81.68;102021.81;4919199;29;20046;-65
2021/06/08 04:40:31;;;;;;;;;;;;;;;15.12;82.18;102023.50;4936509;29;20043;-65
2021/06/08 04:42:56;;;;;;;;;;;;;;;15.17;81.72;102025.72;4936341;29;19919;-65
2021/06/08 04:45:22;;;;;;;13.87;8.27;;;;;;;15.08;82.31;102024.88;4936108;29;20560;-65
2021/06/08 04:47:47;;;;;;;12.27;9.70;;;;;;;15.24;81.50;102023.22;4918971;29;20134;-65
2021/06/08 04:50:14;;;;;;;12.07;8.33;;;;;;;15.47;81.25;102020.78;4935899;29;20040;-65
2021/06/08 04:52:40;;;;;;;15.32;8.85;;;;;;;15.62;80.57;102025.38;4919114;29;20035;-65
2021/06/08 04:55:07;;;;;;;15.73;9.73;;;;;;;15.71;79.56;102031.66;4935661;29;20105;-65
2021/06/08 04:57:33;;;;;;;12.23;7.80;;;;;;;15.97;79.22;102031.53;4918609;29;20385;-65
2021/06/08 05:00:10;;;;;;;13.60;9.25;;;;;;;16.04;77.94;102032.56;4919239;29;20036;-65
2021/06/08 05:02:48;;;;;;;13.88;8.90;;;;;;;16.15;77.52;102030.53;4918536;29;20058;-66
2021/06/08 05:05:20;;;;;;;14.18;8.63;;;;;;;16.28;77.69;102030.88;4935584;29;20046;-66
2021/06/08 05:07:51;;;;;;;11.00;8.48;;;;;;;16.40;77.14;102032.22;4918333;29;20151;-65
2021/06/08 05:10:18;;;;;;;11.77;7.93;;;;;;;16.54;76.13;102033.38;4918957;29;20051;-66
2021/06/08 05:12:45;;;;;;;13.75;9.13;;;;;;;16.35;76.07;102034.56;4935660;29;20035;-66
2021/06/08 05:15:14;;;;;;;16.45;8.18;;;;;;;16.71;75.84;102039.56;4935657;29;20537;-66
2021/06/08 05:17:40;;;;;;;12.32;8.75;;;;;;;16.79;75.04;102036.91;4935607;29;20035;-66
2021/06/08 05:20:09;;;;;;;13.27;9.48;;;;;;;16.57;75.25;102032.19;4918497;29;20092;-66
2021/06/08 05:22:35;;;;;;;12.68;9.75;;;;;;;16.71;75.06;102038.75;4935056;29;20099;-66
2021/06/08 05:25:01;;;;;;;12.10;8.15;;;;;;;16.80;75.84;102038.56;4935352;29;20468;-66
2021/06/08 05:27:28;;;;;;;12.43;8.87;;;;;;;17.04;74.76;102037.69;4902420;29;20040;-66
2021/06/08 05:29:56;;;;;;;13.25;8.32;;;;;;;17.54;72.95;102038.31;4935201;29;20462;-66
2021/06/08 05:32:22;;;;;;;13.60;9.05;;;;;;;17.58;72.07;102036.91;4918084;29;20656;-66
2021/06/08 05:34:48;;;;;;;12.60;8.27;;;;;;;17.95;71.22;102031.81;4918101;29;20071;-66
2021/06/08 05:37:14;;;;;;;12.97;8.97;;;;;;;18.67;68.45;102031.38;4934832;29;20059;-66
2021/06/08 05:39:41;;;;;;;9.13;8.05;;;;;;;18.49;69.06;102031.72;4917556;29;20106;-66
2021/06/08 05:42:09;;;;;;;11.50;8.75;;;;;;;18.89;66.33;102032.34;4918107;29;20374;-66
2021/06/08 05:44:35;;;;;;;12.35;7.88;;;;;;;19.27;65.49;102033.09;4934816;29;20032;-66
2021/06/08 05:47:02;;;;;;;13.50;8.33;;;;;;;19.30;64.01;102032.69;4934807;29;20544;-66
2021/06/08 05:49:28;;;;;;;10.18;8.05;;;;;;;19.76;63.79;102032.44;4934735;29;20299;-66
2021/06/08 05:51:53;;;;;;;10.20;7.23;;;;;;;20.19;61.46;102037.03;4935060;29;20043;-66
2021/06/08 05:54:20;;;;;;;9.18;6.32;;;;;;;20.78;60.69;102030.41;4902348;29;20039;-66
2021/06/08 05:56:46;;;;;;;10.15;6.70;;;;;;;21.00;58.87;102044.72;4934613;29;20043;-66
2021/06/08 05:59:15;;;;;;;12.23;7.85;;;;;;;21.34;58.02;102040.31;4934661;29;20032;-66
2021/06/08 06:01:40;;;;;;;10.02;6.45;;;;;;;21.62;55.75;102049.22;4917867;29;20043;-67
2021/06/08 06:04:06;;;;;;;9.00;6.60;;;;;;;22.06;56.03;102047.00;4917916;29;20058;-67
2021/06/08 06:06:32;;;;;;;10.55;7.15;;;;;;;22.42;55.01;102041.19;4917713;29;20039;-67
2021/06/08 06:08:58;;;;;;;11.40;8.18;;;;;;;21.56;55.54;102044.56;4934862;29;20040;-67
2021/06/08 06:11:24;;;;;;;9.38;7.35;;;;;;;21.70;56.39;102045.47;4934548;29;20525;-67
2021/06/08 06:14:00;;;;;;;13.77;7.57;;;;;;;21.78;57.44;102042.56;4934723;29;20071;-67
2021/06/08 06:16:26;;;;;;;10.40;7.13;;;;;;;22.02;56.39;102048.47;4917335;29;20398;-67
2021/06/08 06:18:52;;;;;;;10.88;7.20;;;;;;;22.24;55.07;102047.28;4917799;29;20027;-67
2021/06/08 06:21:18;;;;;;;12.75;7.25;;;;;;;22.64;54.39;102041.81;4934434;29;20099;-67
2021/06/08 06:23:44;;;;;;;8.20;6.60;;;;;;;22.99;53.68;102046.97;4934547;29;20044;-67
2021/06/08 06:26:10;;;;;;;;;;;;;;;23.25;52.68;102042.50;4917647;29;20059;-67
2021/06/08 06:28:35;;;;;;;10.07;6.50;;;;;;;23.49;52.05;102044.50;4917694;29;20420;-67
2021/06/08 06:31:01;;;;;;;8.70;6.77;;;;;;;23.59;51.31;102044.84;4917357;29;20043;-67
2021/06/08 06:33:26;;;;;;;11.75;7.80;;;;;;;21.97;55.18;102050.97;4901710;29;20071;-67
2021/06/08 06:35:56;;;;;;;14.02;8.30;;;;;;;20.77;59.26;102050.44;4933978;29;20071;-67
2021/06/08 06:38:22;;;;;;;11.10;7.05;;;;;;;19.75;61.76;102047.00;4934285;29;20038;-67
2021/06/08 06:40:48;;;;;;;;;;;;;;;19.68;62.51;102047.94;4902154;29;20560;-67
2021/06/08 06:43:24;;;;;;;;;;;;;;;19.60;62.96;102051.59;4917680;29;20021;-67
2021/06/08 06:45:52;;;;;;;10.20;7.80;;;;;;;19.75;62.04;102052.41;4917141;29;19914;-67
2021/06/08 06:48:18;;;;;;;12.55;6.93;;;;;;;19.51;63.59;102056.28;4934024;29;20036;-66
2021/06/08 06:50:45;;;;;;;11.68;7.32;;;;;;;19.50;63.67;102049.22;4917277;29;20103;-66
2021/06/08 06:53:11;;;;;;;9.98;6.68;;;;;;;19.14;65.12;102049.16;4933990;29;20040;-66
2021/06/08 06:55:37;;;;;;;11.02;6.72;;;;;;;19.25;65.14;102055.97;4934096;29;20427;-66
2021/06/08 06:58:03;;;;;;;10.90;7.32;;;;;;;19.17;64.23;102046.06;4933575;29;20075;-66
2021/06/08 07:00:29;;;;;;;34.15;14.05;;;;;;;18.67;65.98;102047.59;4901552;29;20066;-66
2021/06/08 07:02:56;;;;;;;25.42;10.35;;;;;;;18.77;66.08;102053.59;4933593;29;20043;-66
2021/06/08 07:05:24;;;;;;;39.33;14.73;;;;;;;18.77;67.01;102049.03;4933750;29;20040;-66
2021/06/08 07:07:51;;;;;;;33.20;15.55;;;;;;;18.74;67.09;102054.78;4933406;29;20632;-66
2021/06/08 07:10:19;;;;;;;35.67;15.10;;;;;;;18.78;66.43;102058.00;4917013;29;20095;-66
2021/06/08 07:12:46;;;;;;;11.80;7.97;;;;;;;18.65;66.07;102063.19;4916914;29;20119;-66
2021/06/08 07:15:13;;;;;;;9.90;7.03;;;;;;;18.82;66.91;102067.41;4933232;29;20361;-66
2021/06/08 07:17:39;;;;;;;20.52;10.35;;;;;;;18.92;65.56;102072.56;4916133;29;20118;-66
2021/06/08 07:20:07;;;;;;;10.20;6.88;;;;;;;19.06;63.88;102068.16;4933134;29;20115;-66
2021/06/08 07:22:34;;;;;;;13.30;7.65;;;;;;;18.95;65.65;102075.75;4916317;29;20040;-66
2021/06/08 07:25:04;;;;;;;10.63;7.38;;;;;;;19.05;64.30;102080.03;4933153;29;20107;-66
2021/06/08 07:27:29;;;;;;;10.52;7.90;;;;;;;19.02;65.58;102080.41;4932819;29;20139;-66
2021/06/08 07:29:55;;;;;;;10.70;6.97;;;;;;;19.06;64.01;102079.00;4916921;29;20150;-66
2021/06/08 07:32:24;;;;;;;10.70;7.05;;;;;;;19.11;65.50;102087.41;4916998;29;20462;-66
2021/06/08 07:34:56;;;;;;;11.40;8.48;;;;;;;19.30;64.16;102086.84;4933794;29;20044;-66
2021/06/08 07:37:25;;;;;;;9.90;7.00;;;;;;;19.37;64.47;102082.34;4933537;29;20119;-66
2021/06/08 07:39:58;;;;;;;8.25;6.72;;;;;;;18.73;64.25;102084.72;4933690;29;20050;-66
2021/06/08 07:42:28;;;;;;;11.50;6.35;;;;;;;18.87;65.31;102091.22;4933479;29;20568;-66
2021/06/08 07:45:06;;;;;;;7.22;6.20;;;;;;;19.08;65.22;102094.06;4933531;29;20624;-66
2021/06/08 07:47:32;;;;;;;8.30;6.13;;;;;;;18.88;64.04;102093.75;4916529;29;20083;-66
2021/06/08 07:50:00;;;;;;;10.23;6.15;;;;;;;19.11;64.75;102087.41;4916871;29;20058;-67
2021/06/08 07:52:27;;;;;;;9.05;4.53;;;;;;;19.26;61.54;102090.13;4933600;29;20059;-66
2021/06/08 07:54:53;;;;;;;7.43;4.70;;;;;;;19.31;61.58;102088.50;4933462;29;20119;-67
2021/06/08 07:57:20;;;;;;;4.63;3.83;;;;;;;19.53;60.01;102085.91;4933306;29;20533;-67
2021/06/08 07:59:46;;;;;;;5.43;3.78;;;;;;;19.95;60.05;102081.63;4916784;29;20058;-67
2021/06/08 08:02:12;;;;;;;10.88;4.07;;;;;;;20.20;57.55;102084.78;4935548;29;20035;-66
2021/06/08 08:04:52;;;;;;;3.83;3.20;;;;;;;20.77;56.29;102077.59;4936794;29;20094;-66
2021/06/08 08:07:26;;;;;;;2.88;2.55;;;;;;;21.26;53.31;102082.88;4919991;29;20067;-66
2021/06/08 08:09:55;;;;;;;2.65;2.40;;;;;;;22.11;51.30;102082.56;4919894;29;20094;-67
2021/06/08 08:12:22;;;;;;;5.03;2.20;;;;;;;21.75;49.13;102091.91;4919933;29;20031;-67
2021/06/08 08:14:50;;;;;;;4.00;2.00;;;;;;;21.97;50.47;102086.31;4936687;29;20068;-67
2021/06/08 08:17:16;;;;;;;3.83;3.03;;;;;;;21.99;47.57;102092.41;4918821;29;20171;-67
2021/06/08 08:19:42;;;;;;;;;;;;;;;21.48;49.31;102083.63;4917746;29;20040;-67
2021/06/08 08:22:07;;;;;;;3.45;2.28;;;;;;;21.64;47.57;102090.59;4934173;29;20384;-67
2021/06/08 08:24:34;;;;;;;3.47;2.25;;;;;;;21.25;48.09;102096.66;4934596;29;20036;-67
2021/06/08 08:27:03;;;;;;;3.70;2.35;;;;;;;21.54;46.78;102087.44;4934134;29;20382;-67
2021/06/08 08:29:28;;;;;;;3.17;2.15;;;;;;;21.44;48.16;102084.25;4934442;29;20059;-67
2021/06/08 08:31:54;;;;;;;3.00;2.13;;;;;;;21.75;47.34;102085.63;4917685;29;20067;-67
2021/06/08 08:34:19;;;;;;;3.60;2.17;;;;;;;21.69;46.46;102081.84;4936242;29;20075;-67
2021/06/08 08:36:44;;;;;;;2.13;1.80;;;;;;;21.37;44.56;102075.19;4919219;29;20841;-67
2021/06/08 08:39:11;;;;;;;2.63;2.17;;;;;;;21.97;43.60;102080.88;4936343;29;20488;-67
2021/06/08 08:41:38;;;;;;;2.20;2.00;;;;;;;22.52;41.75;102076.13;4919481;29;20474;-67
2021/06/08 08:44:07;;;;;;;2.38;1.90;;;;;;;23.21;40.75;102074.81;4936122;29;20389;-67
2021/06/08 08:46:32;;;;;;;2.70;2.00;;;;;;;23.82;41.22;102075.41;4919129;29;20049;-67
2021/06/08 08:48:58;;;;;;;3.13;2.35;;;;;;;24.14;39.37;102073.50;4919257;29;20044;-67
2021/06/08 08:51:27;;;;;;;3.25;1.80;;;;;;;24.48;38.38;102074.13;4936100;29;20051;-67
2021/06/08 08:53:54;;;;;;;2.30;2.10;;;;;;;24.72;37.93;102073.25;4935897;29;20043;-67
2021/06/08 08:56:39;;;;;;;3.55;2.72;;;;;;;23.77;39.16;102074.16;4935641;29;20054;-67
2021/06/08 08:59:07;;;;;;;3.65;2.10;;;;;;;23.27;41.10;102079.41;4935532;29;20094;-67
2021/06/08 09:01:34;;;;;;;2.63;2.10;;;;;;;23.13;39.91;102086.78;4918772;29;20040;-67
2021/06/08 09:04:00;;;;;;;3.75;1.90;;;;;;;23.22;41.63;102075.63;4902840;29;20454;-67
2021/06/08 09:06:26;;;;;;;2.22;1.88;;;;;;;22.82;39.62;102078.41;4918806;29;20130;-67
2021/06/08 09:08:52;;;;;;;2.10;1.90;;;;;;;23.38;40.04;102075.97;4935553;29;20123;-67
2021/06/08 09:11:18;;;;;;;2.33;1.90;;;;;;;23.96;37.49;102082.44;4935667;29;20099;-67
2021/06/08 09:13:44;;;;;;;1.88;1.70;;;;;;;24.48;37.12;102079.56;4934642;29;20118;-67
2021/06/08 09:16:11;;;;;;;2.17;1.83;;;;;;;24.69;36.77;102070.16;4935230;29;20139;-67
2021/06/08 09:18:37;;;;;;;2.20;1.85;;;;;;;25.25;38.73;102080.91;4935718;29;20042;-67
2021/06/08 09:21:20;;;;;;;2.05;1.85;;;;;;;25.51;34.34;102072.63;4935491;29;20046;-67
2021/06/08 09:23:46;;;;;;;3.72;1.70;;;;;;;25.47;36.87;102077.69;4918685;29;20120;-67
2021/06/08 09:26:14;;;;;;;3.90;1.58;;;;;;;25.19;33.25;102081.84;4918363;29;20048;-67
2021/06/08 09:28:40;;;;;;;2.30;1.70;;;;;;;25.42;35.59;102078.38;4935393;29;20046;-67
2021/06/08 09:31:09;;;;;;;2.57;1.80;;;;;;;25.85;35.70;102068.38;4935108;29;20035;-67
2021/06/08 09:33:39;;;;;;;1.70;1.40;;;;;;;25.77;35.43;102071.41;4935097;29;20283;-67
2021/06/08 09:36:12;;;;;;;3.05;1.77;;;;;;;25.88;34.29;102073.41;4918260;29;20042;-67
2021/06/08 09:38:41;;;;;;;1.85;1.73;;;;;;;26.15;34.82;102067.50;4918462;29;20054;-68
2021/06/08 09:41:17;;;;;;;2.10;1.52;;;;;;;25.99;34.19;102064.41;4918372;29;20044;-67
2021/06/08 09:43:49;;;;;;;;;;;;;;;26.36;34.57;102064.22;4902977;29;20101;-67
2021/06/08 09:46:15;;;;;;;2.45;1.58;;;;;;;26.79;32.45;102062.25;4934709;29;19958;-68
2021/06/08 09:48:50;;;;;;;2.23;1.60;;;;;;;27.07;33.16;102056.84;4935168;29;20039;-67
2021/06/08 09:51:15;;;;;;;2.53;1.60;;;;;;;26.36;32.97;102061.47;4918289;29;20749;-67
2021/06/08 09:53:41;;;;;;;3.90;2.07;;;;;;;26.61;31.87;102060.47;4935263;29;20031;-67
2021/06/08 09:56:08;;;;;;;1.23;1.10;;;;;;;26.71;31.56;102057.94;4934494;29;20722;-67
2021/06/08 09:58:42;;;;;;;1.40;0.95;;;;;;;27.02;30.58;102055.88;4918178;29;20484;-67
2021/06/08 10:01:20;;;;;;;2.95;1.35;;;;;;;27.10;32.66;102063.75;4918081;29;20130;-67
2021/06/08 10:03:50;;;;;;;1.08;0.95;;;;;;;26.73;29.84;102059.38;4934584;29;20632;-67
2021/06/08 10:06:24;;;;;;;2.03;1.00;;;;;;;26.81;27.88;102054.59;4934248;29;20134;-67
2021/06/08 10:09:01;;;;;;;1.98;1.30;;;;;;;26.63;31.58;102063.81;4917886;29;20043;-67
2021/06/08 10:11:29;;;;;;;1.25;1.15;;;;;;;26.50;30.06;102065.69;4934530;29;20035;-67
2021/06/08 10:14:07;;;;;;;1.30;1.05;;;;;;;26.38;30.03;102059.34;4917587;29;20046;-67
2021/06/08 10:16:33;;;;;;;3.97;1.10;;;;;;;26.12;31.10;102052.41;4934154;29;20105;-67
2021/06/08 10:19:00;;;;;;;1.05;0.95;;;;;;;26.79;31.05;102054.84;4934133;29;20122;-67
2021/06/08 10:21:47;;;;;;;1.10;1.00;;;;;;;27.33;29.14;102058.22;4917837;29;20107;-67
2021/06/08 10:24:18;;;;;;;1.15;0.85;;;;;;;27.60;26.63;102046.69;4933973;29;20372;-68
2021/06/08 10:26:49;;;;;;;1.70;1.10;;;;;;;27.64;28.04;102053.34;4917372;29;20110;-68
2021/06/08 10:29:15;;;;;;;1.08;0.80;;;;;;;27.19;29.61;102062.31;4934389;29;20050;-67
2021/06/08 10:31:43;;;;;;;2.55;1.42;;;;;;;27.05;30.73;102049.94;4917467;29;20043;-68
2021/06/08 10:34:11;;;;;;;0.65;0.65;;;;;;;26.90;29.04;102056.75;4917522;29;20043;-68
2021/06/08 10:36:38;;;;;;;0.80;0.80;;;;;;;27.34;28.27;102068.13;4917109;29;20035;-68
2021/06/08 10:39:08;;;;;;;1.73;0.60;;;;;;;26.92;29.46;102054.59;4934097;29;20039;-68
2021/06/08 10:41:35;;;;;;;1.17;0.80;;;;;;;27.43;26.64;102056.78;4934120;29;20465;-68
2021/06/08 10:44:05;;;;;;;1.38;0.60;;;;;;;27.21;28.11;102059.34;4917156;29;20150;-68
2021/06/08 10:46:37;;;;;;;1.50;0.60;;;;;;;27.81;26.95;102053.38;4917215;29;20058;-68
2021/06/08 10:49:06;;;;;;;1.65;0.60;;;;;;;28.17;26.38;102056.78;4901409;29;20058;-68
2021/06/08 10:51:34;;;;;;;0.90;0.60;;;;;;;28.42;24.74;102050.84;4917047;29;20063;-68
2021/06/08 10:54:02;;;;;;;0.45;0.38;;;;;;;27.94;26.66;102047.63;4917463;29;20146;-68
2021/06/08 10:56:29;;;;;;;0.60;0.60;;;;;;;27.74;27.02;102056.25;4933627;29;20043;-67
2021/06/08 10:59:00;;;;;;;1.90;0.68;;;;;;;27.47;26.74;102045.06;4917172;29;20130;-68
2021/06/08 11:01:41;;;;;;;1.15;0.50;;;;;;;27.57;27.46;102048.00;4934048;29;20338;-68
2021/06/08 11:04:15;;;;;;;1.50;0.70;;;;;;;27.98;26.35;102045.22;4917204;29;20040;-68
2021/06/08 11:06:50;;;;;;;0.82;0.70;;;;;;;28.07;27.92;102053.84;4933477;29;20351;-68
2021/06/08 11:09:22;;;;;;;1.80;0.73;;;;;;;27.97;27.26;102041.63;4933701;29;20136;-68
2021/06/08 11:11:58;;;;;;;1.85;0.73;;;;;;;27.92;28.47;102051.69;4933669;29;20043;-68
2021/06/08 11:14:33;;;;;;;1.50;0.85;;;;;;;27.91;27.78;102053.59;4933771;29;20662;-67
2021/06/08 11:17:00;;;;;;;1.80;0.73;;;;;;;27.92;28.78;102049.78;4933193;29;20071;-67
2021/06/08 11:19:44;;;;;;;1.23;0.85;;;;;;;27.72;28.71;102047.47;4933669;29;20106;-68
2021/06/08 11:22:13;;;;;;;1.13;0.55;;;;;;;28.28;27.39;102044.88;4933371;29;20095;-68
2021/06/08 11:24:44;;;;;;;0.57;0.57;;;;;;;28.53;26.79;102049.97;4916957;29;20040;-67
2021/06/08 11:27:10;;;;;;;1.40;0.80;;;;;;;28.58;26.58;102047.28;4933121;29;20047;-68